createdAt,value
2023-11-30T00:00:17.450Z,5.02
2023-11-30T00:02:44.082Z,5.01
2023-11-30T00:05:11.044Z,5.00
2023-11-30T00:07:37.663Z,5.04
2023-11-30T00:10:04.948Z,5.08
2023-11-30T00:12:31.947Z,5.12
2023-11-30T00:14:58.782Z,5.13
2023-11-30T00:17:25.429Z,5.12
2023-11-30T00:19:52.056Z,5.07
2023-11-30T00:22:18.673Z,5.05
2023-11-30T00:24:45.259Z,5.03
2023-11-30T00:27:11.918Z,5.04
2023-11-30T00:29:38.917Z,5.01
2023-11-30T00:32:06.223Z,4.96
2023-11-30T00:34:32.727Z,4.93
2023-11-30T00:36:59.355Z,4.95
2023-11-30T00:39:25.997Z,4.96
2023-11-30T00:41:52.759Z,4.99
2023-11-30T00:44:22.308Z,5.00
2023-11-30T00:46:49.241Z,4.98
2023-11-30T00:49:15.880Z,5.04
2023-11-30T00:51:42.492Z,5.06
2023-11-30T00:54:09.239Z,5.05
2023-11-30T00:56:35.865Z,5.09
2023-11-30T00:59:02.510Z,5.12
2023-11-30T01:01:29.150Z,5.08
2023-11-30T01:03:55.802Z,5.05
2023-11-30T01:06:22.471Z,5.05
2023-11-30T01:08:49.267Z,5.08
2023-11-30T01:11:15.904Z,5.08
2023-11-30T01:13:42.509Z,4.99
2023-11-30T01:16:09.405Z,5.04
2023-11-30T01:18:36.099Z,5.02
2023-11-30T01:21:04.022Z,5.10
2023-11-30T01:23:30.683Z,5.18
2023-11-30T01:25:57.283Z,5.20
2023-11-30T01:28:23.878Z,5.18
2023-11-30T01:30:50.444Z,5.14
2023-11-30T01:33:17.226Z,5.28
2023-11-30T01:35:44.786Z,5.27
2023-11-30T01:38:11.352Z,5.34
2023-11-30T01:40:38.016Z,5.33
2023-11-30T01:43:07.562Z,5.19
2023-11-30T01:45:34.703Z,5.24
2023-11-30T01:48:02.057Z,5.29
2023-11-30T01:50:28.800Z,5.28
2023-11-30T01:52:55.535Z,5.26
2023-11-30T01:55:22.532Z,5.31
2023-11-30T01:57:49.224Z,5.29
2023-11-30T02:00:16.853Z,5.28
2023-11-30T02:02:44.398Z,5.22
2023-11-30T02:05:11.630Z,5.22
2023-11-30T02:07:38.397Z,5.24
2023-11-30T02:10:05.251Z,5.18
2023-11-30T02:12:31.998Z,5.22
2023-11-30T02:15:00.591Z,5.16
2023-11-30T02:17:27.331Z,5.26
2023-11-30T02:19:53.944Z,5.30
2023-11-30T02:22:20.542Z,5.32
2023-11-30T02:24:47.191Z,5.34
2023-11-30T02:27:13.930Z,5.32
2023-11-30T02:29:40.556Z,5.17
2023-11-30T02:32:07.411Z,5.19
2023-11-30T02:34:34.211Z,5.26
2023-11-30T02:37:00.807Z,5.24
2023-11-30T02:39:27.837Z,5.31
2023-11-30T02:41:54.578Z,5.34
2023-11-30T02:44:21.229Z,5.41
2023-11-30T02:46:47.912Z,5.43
2023-11-30T02:49:14.534Z,5.39
2023-11-30T02:51:41.131Z,5.41
2023-11-30T02:54:07.890Z,5.32
2023-11-30T02:56:42.174Z,5.41
2023-11-30T02:59:08.874Z,5.45
2023-11-30T03:01:42.534Z,5.31
2023-11-30T03:04:09.173Z,5.39
2023-11-30T03:06:35.781Z,5.36
2023-11-30T03:09:02.555Z,5.37
2023-11-30T03:11:29.115Z,5.45
2023-11-30T03:13:55.724Z,5.48
2023-11-30T03:16:26.112Z,5.48
2023-11-30T03:19:05.827Z,5.48
2023-11-30T03:21:39.316Z,5.47
2023-11-30T03:24:08.920Z,5.41
2023-11-30T03:26:35.705Z,5.43
2023-11-30T03:29:02.386Z,5.46
2023-11-30T03:31:29.029Z,5.45
2023-11-30T03:33:55.656Z,5.45
2023-11-30T03:36:22.510Z,5.41
2023-11-30T03:38:54.710Z,5.46
2023-11-30T03:41:22.058Z,5.51
2023-11-30T03:43:49.211Z,5.50
2023-11-30T03:46:16.281Z,5.44
2023-11-30T03:48:42.933Z,5.45
2023-11-30T03:51:10.807Z,5.45
2023-11-30T03:53:37.698Z,5.52
2023-11-30T03:56:04.649Z,5.53
2023-11-30T03:58:31.367Z,5.58
2023-11-30T04:00:58.068Z,5.55
2023-11-30T04:03:24.812Z,5.62
2023-11-30T04:05:51.498Z,5.53
2023-11-30T04:08:18.977Z,5.59
2023-11-30T04:10:46.044Z,5.52
2023-11-30T04:13:12.777Z,5.49
2023-11-30T04:15:39.586Z,5.49
2023-11-30T04:18:06.699Z,5.46
2023-11-30T04:20:33.503Z,5.49
2023-11-30T04:23:00.121Z,5.42
2023-11-30T04:25:26.744Z,5.39
2023-11-30T04:27:53.612Z,5.39
2023-11-30T04:30:20.294Z,5.38
2023-11-30T04:32:46.963Z,5.43
2023-11-30T04:35:13.675Z,5.40
2023-11-30T04:37:40.303Z,5.41
2023-11-30T04:40:07.699Z,5.32
2023-11-30T04:42:34.335Z,5.25
2023-11-30T04:45:01.042Z,5.15
2023-11-30T04:47:27.776Z,5.03
2023-11-30T04:49:54.465Z,5.15
2023-11-30T04:52:21.096Z,5.20
2023-11-30T04:54:47.678Z,5.20
2023-11-30T04:57:15.573Z,5.19
2023-11-30T04:59:42.386Z,5.11
2023-11-30T05:02:09.414Z,5.12
2023-11-30T05:04:36.314Z,5.09
2023-11-30T05:07:03.392Z,5.10
2023-11-30T05:09:30.071Z,5.09
2023-11-30T05:11:56.757Z,5.02
2023-11-30T05:14:23.422Z,5.04
2023-11-30T05:16:50.097Z,5.20
2023-11-30T05:19:16.704Z,5.18
2023-11-30T05:21:43.359Z,5.32
2023-11-30T05:24:10.298Z,5.31
2023-11-30T05:26:36.926Z,5.40
2023-11-30T05:29:04.003Z,5.40
2023-11-30T05:31:30.710Z,5.29
2023-11-30T05:33:57.286Z,5.38
2023-11-30T05:36:23.905Z,5.37
2023-11-30T05:38:51.588Z,5.24
2023-11-30T05:41:18.427Z,5.11
2023-11-30T05:43:45.059Z,5.10
2023-11-30T05:46:11.728Z,5.08
2023-11-30T05:48:38.404Z,5.17
2023-11-30T05:51:05.187Z,5.08
2023-11-30T05:53:31.892Z,5.02
2023-11-30T05:55:58.599Z,4.71
2023-11-30T05:58:25.204Z,4.74
2023-11-30T06:00:51.829Z,4.79
2023-11-30T06:03:18.616Z,4.84
2023-11-30T06:05:45.318Z,4.97
2023-11-30T06:08:12.110Z,4.96
2023-11-30T06:10:39.143Z,4.84
2023-11-30T06:13:08.199Z,4.71
2023-11-30T06:15:35.007Z,4.87
2023-11-30T06:18:01.751Z,4.94
2023-11-30T06:20:28.558Z,5.08
2023-11-30T06:22:55.350Z,5.05
2023-11-30T06:25:21.987Z,4.99
2023-11-30T06:27:48.825Z,5.05
2023-11-30T06:30:15.626Z,5.11
2023-11-30T06:32:42.292Z,5.19
2023-11-30T06:35:09.508Z,5.23
2023-11-30T06:37:36.198Z,5.26
2023-11-30T06:40:02.769Z,5.26
2023-11-30T06:42:30.007Z,5.22
2023-11-30T06:44:56.615Z,5.25
2023-11-30T06:47:23.236Z,5.21
2023-11-30T06:49:49.967Z,5.20
2023-11-30T06:52:17.177Z,5.38
2023-11-30T06:54:43.826Z,5.48
2023-11-30T06:57:11.332Z,5.53
2023-11-30T06:59:38.092Z,5.61
2023-11-30T07:02:04.890Z,5.69
2023-11-30T07:04:31.568Z,5.71
2023-11-30T07:06:58.316Z,5.75
2023-11-30T07:09:24.975Z,5.85
2023-11-30T07:11:51.565Z,5.83
2023-11-30T07:14:18.191Z,5.88
2023-11-30T07:16:44.918Z,5.87
2023-11-30T07:19:11.549Z,5.85
2023-11-30T07:21:38.547Z,5.73
2023-11-30T07:24:05.732Z,5.48
2023-11-30T07:26:32.353Z,5.51
2023-11-30T07:28:59.384Z,5.37
2023-11-30T07:31:25.973Z,5.41
2023-11-30T07:33:52.730Z,5.50
2023-11-30T07:36:19.607Z,5.61
2023-11-30T07:38:46.192Z,5.59
2023-11-30T07:41:13.777Z,5.70
2023-11-30T07:43:40.515Z,5.74
2023-11-30T07:46:07.525Z,5.70
2023-11-30T07:48:34.271Z,5.83
2023-11-30T07:51:00.999Z,5.78
2023-11-30T07:53:27.645Z,5.68
2023-11-30T07:55:58.037Z,5.67
2023-11-30T07:58:25.084Z,5.54
2023-11-30T08:00:52.592Z,5.71
2023-11-30T08:03:19.786Z,5.48
2023-11-30T08:05:46.752Z,5.43
2023-11-30T08:08:13.809Z,5.48
2023-11-30T08:10:41.008Z,5.50
2023-11-30T08:13:07.802Z,5.57
2023-11-30T08:15:34.640Z,5.43
2023-11-30T08:18:02.152Z,5.45
2023-11-30T08:20:28.921Z,5.55
2023-11-30T08:22:56.539Z,5.66
2023-11-30T08:25:23.194Z,5.57
2023-11-30T08:27:54.138Z,5.47
2023-11-30T08:30:22.195Z,5.68
2023-11-30T08:32:49.181Z,5.64
2023-11-30T08:35:15.980Z,5.75
2023-11-30T08:37:42.591Z,5.76
2023-11-30T08:40:11.831Z,5.84
2023-11-30T08:42:38.725Z,5.90
2023-11-30T08:45:06.812Z,5.88
2023-11-30T08:47:33.568Z,5.99
2023-11-30T08:50:00.279Z,5.98
2023-11-30T08:52:26.955Z,6.04
2023-11-30T08:54:54.238Z,6.10
2023-11-30T08:57:20.963Z,6.08
2023-11-30T08:59:47.657Z,6.21
2023-11-30T09:02:14.769Z,6.03
2023-11-30T09:04:41.870Z,6.06
2023-11-30T09:07:08.693Z,6.09
2023-11-30T09:09:35.354Z,6.08
2023-11-30T09:12:03.488Z,6.24
2023-11-30T09:14:33.377Z,6.26
2023-11-30T09:17:02.741Z,6.47
2023-11-30T09:19:29.372Z,6.62
2023-11-30T09:21:55.966Z,6.62
2023-11-30T09:24:23.412Z,6.46
2023-11-30T09:26:54.606Z,6.44
2023-11-30T09:29:21.289Z,6.61
2023-11-30T09:31:48.495Z,6.62
2023-11-30T09:34:15.474Z,6.50
2023-11-30T09:36:42.319Z,6.61
2023-11-30T09:39:09.353Z,6.64
2023-11-30T09:41:40.042Z,6.67
2023-11-30T09:44:07.730Z,6.73
2023-11-30T09:46:34.434Z,6.74
2023-11-30T09:49:01.941Z,6.75
2023-11-30T09:51:30.163Z,6.78
2023-11-30T09:53:58.792Z,6.53
2023-11-30T09:56:29.775Z,6.71
2023-11-30T09:58:56.912Z,6.79
2023-11-30T10:01:23.912Z,6.74
2023-11-30T10:03:51.077Z,6.63
2023-11-30T10:06:17.995Z,6.77
2023-11-30T10:08:45.067Z,6.61
2023-11-30T10:11:13.358Z,6.73
2023-11-30T10:13:40.085Z,6.86
2023-11-30T10:16:07.648Z,6.95
2023-11-30T10:18:35.723Z,6.88
2023-11-30T10:21:03.283Z,7.18
2023-11-30T10:23:31.222Z,7.32
2023-11-30T10:25:58.919Z,7.25
2023-11-30T10:28:26.121Z,7.46
2023-11-30T10:30:56.942Z,7.70
2023-11-30T10:33:25.166Z,7.82
2023-11-30T10:35:53.846Z,8.00
2023-11-30T10:38:25.480Z,8.29
2023-11-30T10:40:56.789Z,8.54
2023-11-30T10:43:25.540Z,8.68
2023-11-30T10:45:59.498Z,8.82
2023-11-30T10:48:28.134Z,9.08
2023-11-30T10:50:55.660Z,9.16
2023-11-30T10:53:28.282Z,9.55
2023-11-30T10:55:56.164Z,9.72
2023-11-30T10:58:26.676Z,9.61
2023-11-30T11:00:57.306Z,9.88
2023-11-30T11:03:25.021Z,10.11
2023-11-30T11:05:52.863Z,10.06
2023-11-30T11:08:19.646Z,10.27
2023-11-30T11:10:48.798Z,10.53
2023-11-30T11:13:35.817Z,10.74
2023-11-30T11:16:08.162Z,10.84
2023-11-30T11:18:36.969Z,10.90
2023-11-30T11:21:03.883Z,11.13
2023-11-30T11:23:35.502Z,11.44
2023-11-30T11:26:04.183Z,11.54
2023-11-30T11:28:32.462Z,11.48
2023-11-30T11:31:00.166Z,11.59
2023-11-30T11:33:29.269Z,11.73
2023-11-30T11:35:55.988Z,11.72
2023-11-30T11:38:22.962Z,11.58
2023-11-30T11:40:49.791Z,11.71
2023-11-30T11:43:16.479Z,11.78
2023-11-30T11:45:43.445Z,11.82
2023-11-30T11:48:12.010Z,11.94
2023-11-30T11:50:39.484Z,11.94
2023-11-30T11:53:06.110Z,12.01
2023-11-30T11:55:32.951Z,12.02
2023-11-30T11:57:59.837Z,12.15
2023-11-30T12:00:27.360Z,12.12
2023-11-30T12:03:06.544Z,12.14
2023-11-30T12:05:33.212Z,12.09
2023-11-30T12:08:01.595Z,12.01
2023-11-30T12:10:42.326Z,11.91
2023-11-30T12:13:11.816Z,11.95
2023-11-30T12:15:38.617Z,11.93
2023-11-30T12:18:06.146Z,11.98
2023-11-30T12:20:32.658Z,12.13
2023-11-30T12:22:59.428Z,12.06
2023-11-30T12:25:26.103Z,12.14
2023-11-30T12:27:53.307Z,12.06
2023-11-30T12:30:20.186Z,12.19
2023-11-30T12:32:47.365Z,12.16
2023-11-30T12:35:14.080Z,12.13
2023-11-30T12:37:40.763Z,12.11
2023-11-30T12:40:10.362Z,12.12
2023-11-30T12:42:37.717Z,12.17
2023-11-30T12:45:05.671Z,12.08
2023-11-30T12:47:33.081Z,11.93
2023-11-30T12:49:59.777Z,11.84
2023-11-30T12:52:28.189Z,12.01
2023-11-30T12:54:55.048Z,11.93
2023-11-30T12:57:21.940Z,11.94
2023-11-30T12:59:50.076Z,11.99
2023-11-30T13:02:17.836Z,11.92
2023-11-30T13:04:44.725Z,11.99
2023-11-30T13:07:11.724Z,11.92
2023-11-30T13:09:38.381Z,11.92
2023-11-30T13:12:05.641Z,11.91
2023-11-30T13:14:32.503Z,12.06
2023-11-30T13:16:59.342Z,12.04
2023-11-30T13:19:26.491Z,12.07
2023-11-30T13:21:53.613Z,12.18
2023-11-30T13:24:21.212Z,12.26
2023-11-30T13:26:49.180Z,12.38
2023-11-30T13:29:16.223Z,12.52
2023-11-30T13:31:43.117Z,12.52
2023-11-30T13:34:09.886Z,12.56
2023-11-30T13:36:36.529Z,12.50
2023-11-30T13:39:05.802Z,12.45
2023-11-30T13:41:32.492Z,12.45
2023-11-30T13:43:59.620Z,12.40
2023-11-30T13:46:26.651Z,12.23
2023-11-30T13:48:53.691Z,12.13
2023-11-30T13:51:20.859Z,12.15
2023-11-30T13:53:48.077Z,12.03
2023-11-30T13:56:16.527Z,12.00
2023-11-30T13:58:43.415Z,11.96
2023-11-30T14:01:13.388Z,11.91
2023-11-30T14:03:41.279Z,11.80
2023-11-30T14:06:08.618Z,11.83
2023-11-30T14:08:36.896Z,11.74
2023-11-30T14:11:05.196Z,11.72
2023-11-30T14:13:31.820Z,11.76
2023-11-30T14:15:59.366Z,11.66
2023-11-30T14:18:26.271Z,11.67
2023-11-30T14:20:52.918Z,11.59
2023-11-30T14:23:19.957Z,11.64
2023-11-30T14:25:46.726Z,11.61
2023-11-30T14:28:14.356Z,11.60
2023-11-30T14:30:41.850Z,11.47
2023-11-30T14:33:11.655Z,11.44
2023-11-30T14:35:39.894Z,11.30
2023-11-30T14:38:06.615Z,11.20
2023-11-30T14:40:33.284Z,11.20
2023-11-30T14:43:00.129Z,11.21
2023-11-30T14:45:27.990Z,11.09
2023-11-30T14:47:54.800Z,11.07
2023-11-30T14:50:21.725Z,11.07
2023-11-30T14:52:48.430Z,10.94
2023-11-30T14:55:15.448Z,10.92
2023-11-30T14:57:43.133Z,11.01
2023-11-30T15:00:13.345Z,11.02
2023-11-30T15:02:42.483Z,10.86
2023-11-30T15:05:11.650Z,10.90
2023-11-30T15:07:39.021Z,10.81
2023-11-30T15:10:05.886Z,10.88
2023-11-30T15:12:32.621Z,10.87
2023-11-30T15:14:59.482Z,10.73
2023-11-30T15:17:26.687Z,10.68
2023-11-30T15:19:54.532Z,10.67
2023-11-30T15:22:21.736Z,10.58
2023-11-30T15:24:48.409Z,10.68
2023-11-30T15:27:15.160Z,10.56
2023-11-30T15:29:41.856Z,10.54
2023-11-30T15:32:08.549Z,10.55
2023-11-30T15:34:35.488Z,10.65
2023-11-30T15:37:04.107Z,10.60
2023-11-30T15:39:31.870Z,10.60
2023-11-30T15:41:58.500Z,10.62
2023-11-30T15:44:25.114Z,10.57
2023-11-30T15:46:51.732Z,10.65
2023-11-30T15:49:18.468Z,10.66
2023-11-30T15:51:47.411Z,10.69
2023-11-30T15:54:14.236Z,10.57
2023-11-30T15:56:41.226Z,10.61
2023-11-30T15:59:07.797Z,10.62
2023-11-30T16:01:34.521Z,10.52
2023-11-30T16:04:01.391Z,10.62
2023-11-30T16:06:28.362Z,10.56
2023-11-30T16:08:55.290Z,10.48
2023-11-30T16:11:22.030Z,10.57
2023-11-30T16:13:48.918Z,10.52
2023-11-30T16:16:15.695Z,10.52
2023-11-30T16:18:42.807Z,10.43
2023-11-30T16:21:20.708Z,10.32
2023-11-30T16:23:48.059Z,10.35
2023-11-30T16:26:21.959Z,10.33
2023-11-30T16:28:49.969Z,10.35
2023-11-30T16:31:16.763Z,10.20
2023-11-30T16:33:43.554Z,10.21
2023-11-30T16:36:10.896Z,10.27
2023-11-30T16:38:37.757Z,10.20
2023-11-30T16:41:04.782Z,10.25
2023-11-30T16:43:32.540Z,10.17
2023-11-30T16:45:59.437Z,10.04
2023-11-30T16:48:26.328Z,10.04
2023-11-30T16:50:52.939Z,9.99
2023-11-30T16:53:19.580Z,10.02
2023-11-30T16:55:46.804Z,9.97
2023-11-30T16:58:13.449Z,10.01
2023-11-30T17:00:40.545Z,10.04
2023-11-30T17:03:07.329Z,9.99
2023-11-30T17:05:34.123Z,9.89
2023-11-30T17:08:00.725Z,10.01
2023-11-30T17:10:27.331Z,10.00
2023-11-30T17:12:55.459Z,9.95
2023-11-30T17:15:22.306Z,9.99
2023-11-30T17:17:50.518Z,10.03
2023-11-30T17:20:17.280Z,10.11
2023-11-30T17:22:46.898Z,10.20
2023-11-30T17:25:13.595Z,10.16
2023-11-30T17:27:40.202Z,10.13
2023-11-30T17:30:07.434Z,10.10
2023-11-30T17:32:34.484Z,10.10
2023-11-30T17:35:01.347Z,10.11
2023-11-30T17:37:28.015Z,10.11
2023-11-30T17:39:54.675Z,10.07
2023-11-30T17:42:22.361Z,10.03
2023-11-30T17:44:49.085Z,10.07
2023-11-30T17:47:18.596Z,10.00
2023-11-30T17:49:45.193Z,10.00
2023-11-30T17:52:12.891Z,9.91
2023-11-30T17:54:39.604Z,9.93
2023-11-30T17:57:06.293Z,9.99
2023-11-30T17:59:32.979Z,10.00
2023-11-30T18:01:59.847Z,10.04
2023-11-30T18:04:26.488Z,10.03
2023-11-30T18:06:53.145Z,10.11
2023-11-30T18:09:19.946Z,10.10
2023-11-30T18:11:46.665Z,10.17
2023-11-30T18:14:13.236Z,10.13
2023-11-30T18:16:39.927Z,10.21
2023-11-30T18:19:06.593Z,10.25
2023-11-30T18:21:34.643Z,10.19
2023-11-30T18:24:01.540Z,10.23
2023-11-30T18:26:28.175Z,10.21
2023-11-30T18:28:56.166Z,10.20
2023-11-30T18:31:24.057Z,10.26
2023-11-30T18:33:51.495Z,10.19
2023-11-30T18:36:18.157Z,10.20
2023-11-30T18:38:50.598Z,10.10
2023-11-30T18:41:19.769Z,10.08
2023-11-30T18:43:46.439Z,10.06
2023-11-30T18:46:16.320Z,10.05
2023-11-30T18:48:43.069Z,10.09
2023-11-30T18:51:10.914Z,10.01
2023-11-30T18:53:37.541Z,9.94
2023-11-30T18:56:05.543Z,10.01
2023-11-30T18:58:32.351Z,9.96
2023-11-30T19:00:58.975Z,9.97
2023-11-30T19:03:25.702Z,9.94
2023-11-30T19:05:52.693Z,9.89
2023-11-30T19:08:19.365Z,9.92
2023-11-30T19:10:46.104Z,9.91
2023-11-30T19:13:12.853Z,9.91
2023-11-30T19:15:42.421Z,9.81
2023-11-30T19:18:09.569Z,9.80
2023-11-30T19:20:38.626Z,9.72
2023-11-30T19:23:05.284Z,9.75
2023-11-30T19:25:31.894Z,9.86
2023-11-30T19:27:58.603Z,9.84
2023-11-30T19:30:25.394Z,9.83
2023-11-30T19:32:52.789Z,9.92
2023-11-30T19:35:19.969Z,9.82
2023-11-30T19:37:46.656Z,9.70
2023-11-30T19:40:13.565Z,9.84
2023-11-30T19:42:40.743Z,9.77
2023-11-30T19:45:08.146Z,9.81
2023-11-30T19:47:35.072Z,9.83
2023-11-30T19:50:01.766Z,9.85
2023-11-30T19:52:28.736Z,9.78
2023-11-30T19:54:55.428Z,9.91
2023-11-30T19:57:22.231Z,9.99
2023-11-30T19:59:49.101Z,9.91
2023-11-30T20:02:15.859Z,9.92
2023-11-30T20:04:42.692Z,9.85
2023-11-30T20:07:09.456Z,9.85
2023-11-30T20:09:36.355Z,9.94
2023-11-30T20:12:03.212Z,9.88
2023-11-30T20:14:29.754Z,9.94
2023-11-30T20:16:56.603Z,9.93
2023-11-30T20:19:24.013Z,10.09
2023-11-30T20:21:50.537Z,10.10
2023-11-30T20:24:17.196Z,10.06
2023-11-30T20:26:46.785Z,10.06
2023-11-30T20:29:13.651Z,10.19
2023-11-30T20:31:40.336Z,10.19
2023-11-30T20:34:07.116Z,10.28
2023-11-30T20:36:33.996Z,10.34
2023-11-30T20:39:00.710Z,10.40
2023-11-30T20:41:27.374Z,10.43
2023-11-30T20:43:57.351Z,10.43
2023-11-30T20:46:23.995Z,10.52
2023-11-30T20:48:50.759Z,10.63
2023-11-30T20:51:20.199Z,10.62
2023-11-30T20:53:46.981Z,10.61
2023-11-30T20:56:14.453Z,10.63
2023-11-30T20:58:44.495Z,10.62
2023-11-30T21:01:11.540Z,10.71
2023-11-30T21:03:38.947Z,10.67
2023-11-30T21:06:06.451Z,10.58
2023-11-30T21:08:34.092Z,10.67
2023-11-30T21:11:03.973Z,10.64
2023-11-30T21:13:32.638Z,10.70
2023-11-30T21:15:59.505Z,10.64
2023-11-30T21:18:26.311Z,10.67
2023-11-30T21:20:52.934Z,10.66
2023-11-30T21:23:19.520Z,10.60
2023-11-30T21:25:46.250Z,10.62
2023-11-30T21:28:12.916Z,10.63
2023-11-30T21:30:41.264Z,10.62
2023-11-30T21:33:09.040Z,10.71
2023-11-30T21:35:35.674Z,10.67
2023-11-30T21:38:02.898Z,10.85
2023-11-30T21:40:31.222Z,10.84
2023-11-30T21:42:57.896Z,10.84
2023-11-30T21:45:24.729Z,10.91
2023-11-30T21:47:51.799Z,10.94
2023-11-30T21:50:22.853Z,10.91
2023-11-30T21:52:50.634Z,10.92
2023-11-30T21:55:18.458Z,10.95
2023-11-30T21:57:48.999Z,10.90
2023-11-30T22:00:17.131Z,10.85
2023-11-30T22:02:45.806Z,10.85
2023-11-30T22:05:24.100Z,10.90
2023-11-30T22:07:57.342Z,10.83
2023-11-30T22:10:23.964Z,10.89
2023-11-30T22:12:50.606Z,10.85
2023-11-30T22:15:17.345Z,10.87
2023-11-30T22:17:44.949Z,10.87
2023-11-30T22:20:12.138Z,10.87
2023-11-30T22:22:38.719Z,10.88
2023-11-30T22:25:05.855Z,10.83
2023-11-30T22:27:32.520Z,10.75
2023-11-30T22:29:59.116Z,10.70
2023-11-30T22:32:25.750Z,10.68
2023-11-30T22:34:53.075Z,10.71
2023-11-30T22:37:21.218Z,10.71
2023-11-30T22:39:48.022Z,10.69
2023-11-30T22:42:14.901Z,10.71
2023-11-30T22:44:41.579Z,10.69
2023-11-30T22:47:08.195Z,10.66
2023-11-30T22:49:34.966Z,10.69
2023-11-30T22:52:01.818Z,10.73
2023-11-30T22:54:28.917Z,10.79
2023-11-30T22:56:55.803Z,10.73
2023-11-30T22:59:22.437Z,10.90
2023-11-30T23:01:50.504Z,10.88
2023-11-30T23:04:17.592Z,10.88
2023-11-30T23:06:44.442Z,10.92
2023-11-30T23:09:11.047Z,10.94
2023-11-30T23:11:37.709Z,10.96
2023-11-30T23:14:04.391Z,10.88
2023-11-30T23:16:31.041Z,10.88
2023-11-30T23:18:57.842Z,10.96
2023-11-30T23:21:24.532Z,10.98
2023-11-30T23:23:51.077Z,11.03
2023-11-30T23:26:18.231Z,11.13
2023-11-30T23:28:44.967Z,11.15
2023-11-30T23:31:11.672Z,11.11
2023-11-30T23:33:38.416Z,11.13
2023-11-30T23:36:05.476Z,11.02
2023-11-30T23:38:32.086Z,11.15
2023-11-30T23:40:58.711Z,11.17
2023-11-30T23:43:25.407Z,11.11
2023-11-30T23:45:52.119Z,11.17
2023-11-30T23:48:18.950Z,11.23
2023-11-30T23:50:45.635Z,11.28
2023-11-30T23:53:13.023Z,11.28
2023-11-30T23:55:39.771Z,11.26
2023-11-30T23:58:06.453Z,11.26
